Time;durP1;ratioP1;P1;durP2;ratioP2;P2;SDS_P1;SDS_P2;PMS_P1;PMS_P2;Temp;Humidity;BMP_temperature;BMP_pressure;BME280_temperature;BME280_humidity;BME280_pressure;Samples;Min_cycle;Max_cycle;Signal;HPM_P1;HPM_P2
2023/03/14 00:01:13;;;;;;;4.35;2.17;;;14.70;96.70;;;;;;5066520;28;20063;-72
2023/03/14 00:03:41;;;;;;;6.60;2.50;;;14.60;96.70;;;;;;5094103;28;20498;-72
2023/03/14 00:06:10;;;;;;;8.35;2.25;;;14.60;96.70;;;;;;5066883;28;20044;-71
2023/03/14 00:08:38;;;;;;;4.80;2.53;;;14.50;96.70;;;;;;5050718;28;20033;-71
2023/03/14 00:11:08;;;;;;;8.95;2.33;;;14.50;96.70;;;;;;5073338;28;20111;-71
2023/03/14 00:13:37;;;;;;;7.50;2.30;;;14.40;96.70;;;;;;5052246;28;20044;-72
2023/03/14 00:16:07;;;;;;;6.82;2.00;;;14.40;96.70;;;;;;5060201;28;20055;-71
2023/03/14 00:18:35;;;;;;;6.72;2.13;;;14.30;96.70;;;;;;5071147;28;20502;-72
2023/03/14 00:21:04;;;;;;;6.75;2.08;;;14.30;96.70;;;;;;5077672;28;20036;-72
2023/03/14 00:23:34;;;;;;;8.32;2.25;;;14.20;96.70;;;;;;5081264;28;20040;-72
2023/03/14 00:26:05;;;;;;;9.93;2.47;;;14.20;96.70;;;;;;5069559;28;20052;-71
2023/03/14 00:28:32;;;;;;;5.15;2.00;;;14.20;96.70;;;;;;5079973;28;20044;-72
2023/03/14 00:31:05;;;;;;;4.95;1.70;;;14.20;96.70;;;;;;5051499;28;20064;-71
2023/03/14 00:33:33;;;;;;;4.03;1.30;;;14.20;96.70;;;;;;5053824;28;20053;-71
2023/03/14 00:36:05;;;;;;;4.07;1.67;;;14.10;96.70;;;;;;5049901;28;20049;-71
2023/03/14 00:38:33;;;;;;;6.88;2.15;;;14.10;96.70;;;;;;5053361;28;20068;-71
2023/03/14 00:41:04;;;;;;;5.63;2.22;;;14.00;96.70;;;;;;5039139;28;20371;-72
2023/03/14 00:43:32;;;;;;;7.63;2.03;;;14.00;96.70;;;;;;5054245;28;20138;-71
2023/03/14 00:45:59;;;;;;;4.82;1.50;;;14.00;96.70;;;;;;5035466;28;20101;-72
2023/03/14 00:48:28;;;;;;;4.25;2.08;;;14.00;96.70;;;;;;5054303;28;20043;-72
2023/03/14 00:50:56;;;;;;;6.13;1.73;;;13.90;96.70;;;;;;5068078;28;20075;-72
2023/03/14 00:53:24;;;;;;;3.88;1.48;;;13.80;96.70;;;;;;5049617;28;20037;-72
2023/03/14 00:55:51;;;;;;;8.48;2.47;;;13.70;96.70;;;;;;5038780;28;20105;-72
2023/03/14 00:58:19;;;;;;;5.75;1.63;;;13.60;96.70;;;;;;5040791;28;20032;-71
2023/03/14 01:00:47;;;;;;;6.93;1.95;;;13.60;96.70;;;;;;5051896;28;20040;-71
2023/03/14 01:03:15;;;;;;;5.10;1.60;;;13.60;96.70;;;;;;5054062;28;20048;-72
2023/03/14 01:05:44;;;;;;;6.18;2.03;;;13.50;96.70;;;;;;5072759;28;20040;-71
2023/03/14 01:08:12;;;;;;;9.02;2.08;;;13.60;96.70;;;;;;5050497;28;20063;-71
2023/03/14 01:10:41;;;;;;;5.60;1.65;;;13.60;96.70;;;;;;5050002;28;20055;-71
2023/03/14 01:13:09;;;;;;;5.30;2.05;;;13.60;96.70;;;;;;5052469;28;20059;-71
2023/03/14 01:15:37;;;;;;;6.53;2.55;;;13.60;96.70;;;;;;5070640;28;20071;-71
2023/03/14 01:18:05;;;;;;;4.95;1.90;;;13.60;96.70;;;;;;5048098;28;20825;-72
2023/03/14 01:20:33;;;;;;;6.03;2.08;;;13.60;96.70;;;;;;5072414;28;20036;-71
2023/03/14 01:23:02;;;;;;;6.00;2.08;;;13.50;96.70;;;;;;5048349;28;20063;-71
2023/03/14 01:25:31;;;;;;;6.70;1.70;;;13.50;96.70;;;;;;5034390;28;20091;-71
2023/03/14 01:28:00;;;;;;;6.88;1.85;;;13.50;96.70;;;;;;5047601;28;20120;-71
2023/03/14 01:30:28;;;;;;;6.47;2.80;;;13.50;96.70;;;;;;5048903;28;20053;-71
2023/03/14 01:32:56;;;;;;;6.30;2.10;;;13.50;96.70;;;;;;5051128;28;20047;-71
2023/03/14 01:35:24;;;;;;;7.55;1.88;;;13.40;96.70;;;;;;5047321;28;20105;-72
2023/03/14 01:37:51;;;;;;;6.32;2.08;;;13.50;96.70;;;;;;5045064;28;20048;-71
2023/03/14 01:40:23;;;;;;;8.38;2.28;;;13.40;96.70;;;;;;5045461;28;20071;-72
2023/03/14 01:42:55;;;;;;;8.90;2.65;;;13.40;96.70;;;;;;5048084;28;20049;-72
2023/03/14 01:46:01;;;;;;;8.57;2.42;;;13.40;96.70;;;;;;5046743;28;20594;-72
2023/03/14 01:48:35;;;;;;;7.15;2.50;;;13.40;96.70;;;;;;5045680;28;20658;-73
2023/03/14 01:51:06;;;;;;;5.80;2.00;;;13.40;96.70;;;;;;5061690;28;20063;-71
2023/03/14 01:53:39;;;;;;;6.90;2.10;;;13.40;96.70;;;;;;5048156;28;20158;-72
2023/03/14 01:56:10;;;;;;;6.07;1.90;;;13.40;96.70;;;;;;5049724;28;20052;-72
2023/03/14 01:58:40;;;;;;;4.53;1.90;;;13.30;96.70;;;;;;5046867;28;20049;-72
2023/03/14 02:01:09;;;;;;;9.32;2.08;;;13.10;96.70;;;;;;5045443;28;20056;-72
2023/03/14 02:03:44;;;;;;;4.93;1.77;;;13.10;96.70;;;;;;5049881;28;20518;-72
2023/03/14 02:06:16;;;;;;;8.02;2.38;;;13.20;96.70;;;;;;5048230;28;20048;-71
2023/03/14 02:08:49;;;;;;;5.10;1.67;;;13.20;96.70;;;;;;5033617;28;21438;-72
2023/03/14 02:11:28;;;;;;;6.65;2.03;;;13.20;96.70;;;;;;5046637;28;20041;-72
2023/03/14 02:14:07;;;;;;;7.47;2.10;;;13.10;96.70;;;;;;5043102;28;20133;-72
2023/03/14 02:17:03;;;;;;;5.65;1.88;;;13.10;96.70;;;;;;4992204;28;20049;-72
2023/03/14 02:20:07;;;;;;;5.53;1.92;;;13.00;96.70;;;;;;5010603;28;20147;-72
2023/03/14 02:22:41;;;;;;;5.70;2.05;;;13.00;96.70;;;;;;4995199;28;20057;-73
2023/03/14 02:25:16;;;;;;;5.95;1.90;;;13.10;96.70;;;;;;4977915;28;20049;-72
2023/03/14 02:27:47;;;;;;;5.18;1.70;;;13.10;96.70;;;;;;4993837;28;20132;-72
2023/03/14 02:30:18;;;;;;;9.30;2.05;;;13.10;96.70;;;;;;4978058;28;20072;-71
2023/03/14 02:32:51;;;;;;;6.20;1.30;;;13.10;96.70;;;;;;4997197;28;20168;-71
2023/03/14 02:35:22;;;;;;;7.53;1.65;;;13.10;96.70;;;;;;4994263;28;20053;-71
2023/03/14 02:37:56;;;;;;;6.38;1.70;;;13.10;96.70;;;;;;4991728;28;20181;-71
2023/03/14 02:40:28;;;;;;;7.78;1.38;;;13.20;96.70;;;;;;5000131;28;20052;-71
2023/03/14 02:42:58;;;;;;;8.35;1.73;;;13.20;96.70;;;;;;4991528;28;20054;-71
2023/03/14 02:45:39;;;;;;;5.97;1.45;;;13.20;96.70;;;;;;5003935;28;20057;-71
2023/03/14 02:48:13;;;;;;;6.20;1.60;;;13.20;96.70;;;;;;5011891;28;20103;-71
2023/03/14 02:50:43;;;;;;;4.65;1.60;;;13.30;96.70;;;;;;4991325;28;20103;-72
2023/03/14 02:53:14;;;;;;;4.50;1.70;;;13.30;96.70;;;;;;5014818;28;20045;-71
2023/03/14 02:55:46;;;;;;;4.63;1.65;;;13.30;96.70;;;;;;5047100;28;20503;-71
2023/03/14 02:58:19;;;;;;;6.25;1.20;;;13.30;96.70;;;;;;5049591;28;20044;-71
2023/03/14 03:00:52;;;;;;;4.28;1.42;;;13.30;96.70;;;;;;5028410;28;20506;-72
2023/03/14 03:03:20;;;;;;;5.55;1.95;;;13.30;96.70;;;;;;5044353;28;20052;-71
2023/03/14 03:05:50;;;;;;;7.35;1.60;;;13.30;96.70;;;;;;5047148;28;20384;-71
2023/03/14 03:08:19;;;;;;;5.05;1.83;;;13.30;96.70;;;;;;5050678;28;20045;-71
2023/03/14 03:10:48;;;;;;;6.85;1.80;;;13.30;96.70;;;;;;5058454;28;20046;-71
2023/03/14 03:13:19;;;;;;;7.15;1.40;;;13.40;96.70;;;;;;5058815;28;20055;-71
2023/03/14 03:15:52;;;;;;;5.38;1.55;;;13.40;96.70;;;;;;5048208;28;20049;-71
2023/03/14 03:18:21;;;;;;;6.20;1.50;;;13.30;96.70;;;;;;5048437;28;20430;-71
2023/03/14 03:20:49;;;;;;;6.70;1.80;;;13.30;96.70;;;;;;5052564;28;20048;-71
2023/03/14 03:23:17;;;;;;;6.05;1.73;;;13.30;96.70;;;;;;5053981;28;20653;-71
2023/03/14 03:25:49;;;;;;;5.43;1.67;;;13.30;96.70;;;;;;5057705;28;20383;-71
2023/03/14 03:28:19;;;;;;;5.63;1.70;;;13.30;96.70;;;;;;5049190;28;20062;-72
2023/03/14 03:30:47;;;;;;;4.97;1.80;;;13.30;96.70;;;;;;5051557;28;20048;-71
2023/03/14 03:33:16;;;;;;;5.78;2.00;;;13.30;96.70;;;;;;5050164;28;20047;-72
2023/03/14 03:35:47;;;;;;;6.22;2.10;;;13.20;96.70;;;;;;5058937;28;20041;-72
2023/03/14 03:38:20;;;;;;;6.13;1.95;;;13.20;96.70;;;;;;5051346;28;20128;-71
2023/03/14 03:40:51;;;;;;;5.10;2.17;;;13.20;96.70;;;;;;5049848;28;20128;-71
2023/03/14 03:43:21;;;;;;;7.07;1.98;;;13.10;96.70;;;;;;5051174;28;20513;-71
2023/03/14 03:45:50;;;;;;;4.90;1.90;;;13.20;96.70;;;;;;5057266;28;20082;-72
2023/03/14 03:48:20;;;;;;;5.95;1.95;;;13.20;96.70;;;;;;5049434;28;20455;-71
2023/03/14 03:50:48;;;;;;;6.00;1.77;;;13.30;96.70;;;;;;5048307;28;20126;-71
2023/03/14 03:53:21;;;;;;;5.28;1.90;;;13.20;96.70;;;;;;5053399;28;20118;-71
2023/03/14 03:56:02;;;;;;;6.55;2.20;;;13.30;96.70;;;;;;5049564;28;20052;-71
2023/03/14 03:58:32;;;;;;;6.90;2.17;;;13.20;96.70;;;;;;5054077;28;20067;-71
2023/03/14 04:01:02;;;;;;;6.07;1.50;;;13.20;96.70;;;;;;5051532;28;20872;-71
2023/03/14 04:03:30;;;;;;;6.40;1.65;;;13.10;96.70;;;;;;5045530;28;20032;-71
2023/03/14 04:06:00;;;;;;;8.18;1.67;;;13.10;96.70;;;;;;5053371;28;20048;-71
2023/03/14 04:08:28;;;;;;;5.82;1.67;;;13.00;96.70;;;;;;5049972;28;20147;-71
2023/03/14 04:10:58;;;;;;;4.90;1.52;;;13.00;96.70;;;;;;5048831;28;20059;-71
2023/03/14 04:13:58;;;;;;;4.70;1.42;;;12.90;96.70;;;;;;4990517;28;20058;-71
2023/03/14 04:16:27;;;;;;;6.35;1.55;;;12.90;96.70;;;;;;4981257;28;20061;-71
2023/03/14 04:19:03;;;;;;;4.88;1.40;;;12.90;96.70;;;;;;4981656;28;20050;-72
2023/03/14 04:21:32;;;;;;;4.40;1.10;;;12.90;96.70;;;;;;4974932;28;20559;-71
2023/03/14 04:24:00;;;;;;;6.55;1.38;;;12.80;96.70;;;;;;4994918;28;20058;-71
2023/03/14 04:26:32;;;;;;;4.95;0.93;;;12.70;96.70;;;;;;4988017;28;20054;-71
2023/03/14 04:29:01;;;;;;;6.57;1.60;;;12.80;96.70;;;;;;4977714;28;20042;-72
2023/03/14 04:31:30;;;;;;;4.70;1.30;;;12.80;96.70;;;;;;4979814;28;20409;-71
2023/03/14 04:33:59;;;;;;;3.95;1.17;;;12.80;96.70;;;;;;4974770;28;20043;-71
2023/03/14 04:36:34;;;;;;;5.65;1.52;;;12.70;96.70;;;;;;4982631;28;20054;-71
2023/03/14 04:39:09;;;;;;;6.75;1.20;;;12.80;96.70;;;;;;4983847;28;20427;-71
2023/03/14 04:41:44;;;;;;;6.80;1.52;;;12.80;96.70;;;;;;4995418;28;20130;-71
2023/03/14 04:44:14;;;;;;;6.47;2.35;;;12.80;96.70;;;;;;4997532;28;20101;-71
2023/03/14 04:46:42;;;;;;;5.70;2.03;;;12.80;96.70;;;;;;4975387;28;20531;-71
2023/03/14 04:49:24;;;;;;;7.28;2.50;;;12.80;96.70;;;;;;4993206;28;20050;-71
2023/03/14 04:51:52;;;;;;;5.07;1.98;;;12.80;96.70;;;;;;5046734;28;20072;-71
2023/03/14 04:54:22;;;;;;;7.35;2.10;;;12.90;96.70;;;;;;5053081;28;20483;-72
2023/03/14 04:56:55;;;;;;;7.88;1.90;;;13.00;96.70;;;;;;5044899;28;20168;-71
2023/03/14 04:59:26;;;;;;;6.65;2.17;;;13.00;96.70;;;;;;5051018;28;20057;-71
2023/03/14 05:01:58;;;;;;;5.75;1.55;;;13.00;96.70;;;;;;5053198;28;20048;-71
2023/03/14 05:05:06;;;;;;;8.48;1.88;;;13.00;96.70;;;;;;4993303;28;20045;-71
2023/03/14 05:08:09;;;;;;;5.28;1.50;;;13.00;96.70;;;;;;4967851;28;20879;-72
2023/03/14 05:10:57;;;;;;;6.88;1.40;;;13.00;96.70;;;;;;4959206;28;20054;-71
2023/03/14 05:13:37;;;;;;;6.60;2.00;;;13.00;96.70;;;;;;4959587;28;20042;-72
2023/03/14 05:16:27;;;;;;;4.95;2.00;;;13.00;96.70;;;;;;4955962;28;20069;-71
2023/03/14 05:19:02;;;;;;;5.78;1.88;;;13.00;96.70;;;;;;4970357;28;20053;-72
2023/03/14 05:22:05;;;;;;;7.05;1.67;;;13.00;96.70;;;;;;4925518;29;20529;-71
2023/03/14 05:24:59;;;;;;;5.25;1.85;;;12.90;96.70;;;;;;4890785;29;20144;-71
2023/03/14 05:28:00;;;;;;;4.38;1.63;;;12.90;96.70;;;;;;4900954;29;20044;-72
2023/03/14 05:30:46;;;;;;;5.88;1.90;;;12.80;96.70;;;;;;4901246;29;20123;-71
2023/03/14 05:33:37;;;;;;;6.43;1.48;;;12.80;96.70;;;;;;4901263;29;20155;-71
2023/03/14 05:36:29;;;;;;;6.85;2.08;;;12.70;96.70;;;;;;4883248;29;20462;-71
2023/03/14 05:39:17;;;;;;;6.60;2.10;;;12.70;96.70;;;;;;4899953;29;20061;-71
2023/03/14 05:42:06;;;;;;;7.13;2.60;;;12.70;96.70;;;;;;4941535;28;20053;-72
2023/03/14 05:44:54;;;;;;;5.78;1.85;;;12.80;96.70;;;;;;4957501;28;20054;-71
2023/03/14 05:47:41;;;;;;;5.57;1.95;;;12.80;96.70;;;;;;4940908;28;20074;-71
2023/03/14 05:50:29;;;;;;;13.48;6.00;;;12.90;96.70;;;;;;4957362;28;20057;-72
2023/03/14 05:53:16;;;;;;;15.50;8.20;;;13.00;96.70;;;;;;4956657;28;20173;-71
2023/03/14 05:56:04;;;;;;;10.35;5.25;;;12.90;96.70;;;;;;4966937;28;20135;-71
2023/03/14 05:58:48;;;;;;;9.20;3.58;;;12.90;96.70;;;;;;4977630;28;20053;-72
2023/03/14 06:01:43;;;;;;;10.30;4.25;;;12.90;96.70;;;;;;4955677;28;20046;-72
2023/03/14 06:04:18;;;;;;;8.60;4.00;;;12.90;96.70;;;;;;5009982;28;20688;-73
2023/03/14 06:06:53;;;;;;;7.75;3.60;;;13.00;96.70;;;;;;5034559;28;20635;-72
2023/03/14 06:09:23;;;;;;;9.50;3.22;;;13.10;96.70;;;;;;5044704;28;20049;-72
2023/03/14 06:11:54;;;;;;;6.97;2.90;;;13.10;96.70;;;;;;5036547;28;20049;-72
2023/03/14 06:14:23;;;;;;;9.02;3.13;;;13.10;96.70;;;;;;5032694;28;20554;-72
2023/03/14 06:16:52;;;;;;;7.00;2.33;;;13.10;96.70;;;;;;5034480;28;20045;-72
2023/03/14 06:19:23;;;;;;;11.75;2.88;;;13.20;96.70;;;;;;5021027;28;20041;-72
2023/03/14 06:21:53;;;;;;;7.57;2.53;;;13.20;96.70;;;;;;5038423;28;20060;-72
2023/03/14 06:24:22;;;;;;;7.28;2.63;;;13.30;96.70;;;;;;5037241;28;20072;-72
2023/03/14 06:26:52;;;;;;;8.15;2.65;;;13.30;96.70;;;;;;5048070;28;20056;-72
2023/03/14 06:29:21;;;;;;;8.82;2.80;;;13.30;96.70;;;;;;5045941;28;20050;-73
2023/03/14 06:31:49;;;;;;;9.05;2.50;;;13.30;96.70;;;;;;5050369;28;20055;-72
2023/03/14 06:34:18;;;;;;;8.32;2.63;;;13.20;96.70;;;;;;5046112;28;20048;-72
2023/03/14 06:36:47;;;;;;;9.07;2.50;;;13.10;96.70;;;;;;5045631;28;20072;-72
2023/03/14 06:39:17;;;;;;;9.93;2.83;;;13.20;96.70;;;;;;5048018;28;20141;-72
2023/03/14 06:41:49;;;;;;;6.53;2.08;;;13.20;96.70;;;;;;5046713;28;20053;-72
2023/03/14 06:44:18;;;;;;;5.63;1.80;;;13.20;96.70;;;;;;5051392;28;20053;-72
2023/03/14 06:46:47;;;;;;;7.50;2.30;;;13.20;96.70;;;;;;5049103;28;20070;-72
2023/03/14 06:49:15;;;;;;;8.05;2.20;;;13.20;96.70;;;;;;5052624;28;20067;-72
2023/03/14 06:51:44;;;;;;;5.57;2.00;;;13.20;96.70;;;;;;5048972;28;20778;-72
2023/03/14 06:54:16;;;;;;;8.20;2.20;;;13.20;96.70;;;;;;5039984;28;20044;-73
2023/03/14 06:56:45;;;;;;;9.07;2.30;;;13.30;96.70;;;;;;5053391;28;20072;-72
2023/03/14 06:59:14;;;;;;;7.47;2.80;;;13.50;96.70;;;;;;5033192;28;20037;-72
2023/03/14 07:01:47;;;;;;;9.00;2.42;;;13.50;96.70;;;;;;5034955;28;20110;-72
2023/03/14 07:04:25;;;;;;;9.15;2.88;;;13.60;96.70;;;;;;5054292;28;20045;-72
2023/03/14 07:06:53;;;;;;;9.05;2.47;;;13.60;96.70;;;;;;5051635;28;20493;-72
2023/03/14 07:09:23;;;;;;;10.80;2.67;;;13.60;96.70;;;;;;5055461;28;20124;-72
2023/03/14 07:11:57;;;;;;;10.07;2.90;;;13.60;96.70;;;;;;5050064;28;20040;-72
2023/03/14 07:14:25;;;;;;;8.30;2.75;;;13.60;96.70;;;;;;5057954;28;20060;-72
2023/03/14 07:16:54;;;;;;;9.50;2.63;;;13.60;96.70;;;;;;5053526;28;20128;-72
2023/03/14 07:19:24;;;;;;;8.60;2.40;;;13.60;96.70;;;;;;5068336;28;20123;-72
2023/03/14 07:21:52;;;;;;;7.13;2.08;;;13.60;96.70;;;;;;5055041;28;20060;-72
2023/03/14 07:24:25;;;;;;;11.60;2.28;;;13.60;96.70;;;;;;5054064;28;20049;-72
2023/03/14 07:26:54;;;;;;;7.78;2.35;;;13.50;96.70;;;;;;5063654;28;20052;-72
2023/03/14 07:29:22;;;;;;;6.65;2.17;;;13.50;96.70;;;;;;5060875;28;20498;-72
2023/03/14 07:31:50;;;;;;;10.38;5.47;;;13.60;96.70;;;;;;5044967;28;20045;-72
2023/03/14 07:34:20;;;;;;;11.80;8.15;;;13.60;96.70;;;;;;5044550;28;20059;-72
2023/03/14 07:36:53;;;;;;;17.88;10.60;;;13.60;96.70;;;;;;5060348;28;20063;-72
2023/03/14 07:39:29;;;;;;;13.00;4.85;;;13.60;96.70;;;;;;5065835;28;20805;-72
2023/03/14 07:42:05;;;;;;;8.90;3.90;;;13.60;96.70;;;;;;5058026;28;20070;-73
2023/03/14 07:44:37;;;;;;;7.93;3.20;;;13.70;96.70;;;;;;5058661;28;20098;-72
2023/03/14 07:47:05;;;;;;;7.00;2.78;;;13.70;96.70;;;;;;5059091;28;20040;-73
2023/03/14 07:49:33;;;;;;;9.15;3.63;;;13.80;96.70;;;;;;5053727;28;20127;-73
2023/03/14 07:52:01;;;;;;;7.05;3.42;;;13.80;96.70;;;;;;5046856;28;20235;-73
2023/03/14 07:54:31;;;;;;;8.00;3.55;;;13.90;96.70;;;;;;5054685;28;20033;-73
2023/03/14 07:57:00;;;;;;;9.35;3.50;;;14.00;96.70;;;;;;5063500;28;20105;-74
2023/03/14 07:59:28;;;;;;;7.13;2.95;;;14.20;96.70;;;;;;5065359;28;20518;-73
2023/03/14 08:01:56;;;;;;;7.88;3.45;;;14.20;96.70;;;;;;5062437;28;20465;-73
2023/03/14 08:04:25;;;;;;;10.45;4.57;;;14.30;96.70;;;;;;5056636;28;20064;-74
2023/03/14 08:06:54;;;;;;;12.48;4.20;;;14.30;96.70;;;;;;5053713;28;20536;-73
2023/03/14 08:09:22;;;;;;;8.73;3.67;;;14.30;96.70;;;;;;5073653;28;20138;-73
2023/03/14 08:11:51;;;;;;;7.85;3.53;;;14.30;96.70;;;;;;5064644;28;20506;-73
2023/03/14 08:14:19;;;;;;;12.02;3.88;;;14.30;96.70;;;;;;5054891;28;20466;-72
2023/03/14 08:16:47;;;;;;;10.98;3.70;;;14.30;96.70;;;;;;5073401;28;20075;-72
2023/03/14 08:19:15;;;;;;;8.73;3.22;;;14.30;96.70;;;;;;5069697;28;20035;-72
2023/03/14 08:21:43;;;;;;;9.77;2.92;;;14.30;96.70;;;;;;5070181;28;20138;-74
2023/03/14 08:24:11;;;;;;;8.07;3.08;;;14.30;96.70;;;;;;5081298;28;20085;-73
2023/03/14 08:26:39;;;;;;;7.40;3.20;;;14.40;96.70;;;;;;5091032;28;20047;-74
2023/03/14 08:29:09;;;;;;;6.53;2.83;;;14.40;96.70;;;;;;5096300;28;20442;-73
2023/03/14 08:31:37;;;;;;;6.88;2.85;;;14.50;96.70;;;;;;5093791;28;20085;-74
2023/03/14 08:34:06;;;;;;;8.80;3.10;;;14.50;96.70;;;;;;5069181;28;20125;-73
2023/03/14 08:36:34;;;;;;;12.25;3.83;;;14.50;96.70;;;;;;5064492;28;20148;-73
2023/03/14 08:39:03;;;;;;;8.63;3.88;;;14.50;96.70;;;;;;5083507;28;20032;-72
2023/03/14 08:41:31;;;;;;;11.98;3.80;;;14.60;96.70;;;;;;5087195;28;20036;-72
2023/03/14 08:43:59;;;;;;;12.27;5.30;;;14.60;96.70;;;;;;5098945;28;20051;-73
2023/03/14 08:46:30;;;;;;;12.00;3.42;;;14.70;96.70;;;;;;5069579;28;20055;-73
2023/03/14 08:48:58;;;;;;;11.38;4.40;;;14.70;96.70;;;;;;5064555;28;20486;-73
2023/03/14 08:51:26;;;;;;;13.23;4.32;;;14.70;96.70;;;;;;5093344;28;20063;-74
2023/03/14 08:53:54;;;;;;;15.38;4.75;;;14.80;96.70;;;;;;5094580;28;20144;-74
2023/03/14 08:56:21;;;;;;;10.65;3.60;;;14.90;96.70;;;;;;5086683;28;20155;-74
2023/03/14 08:58:52;;;;;;;11.05;2.83;;;15.00;96.70;;;;;;5055905;28;20773;-73
2023/03/14 09:01:23;;;;;;;11.50;2.72;;;15.00;96.70;;;;;;5059376;28;20032;-73
2023/03/14 09:03:53;;;;;;;11.80;3.00;;;15.00;96.70;;;;;;5064694;28;20058;-73
2023/03/14 09:06:21;;;;;;;13.90;2.80;;;15.00;96.70;;;;;;5082900;28;20728;-73
2023/03/14 09:08:49;;;;;;;10.15;2.63;;;15.00;96.70;;;;;;5047287;28;20056;-72
2023/03/14 09:11:18;;;;;;;10.57;2.75;;;15.00;96.70;;;;;;5055698;28;20040;-72
2023/03/14 09:13:46;;;;;;;8.68;2.13;;;15.00;96.70;;;;;;5070861;28;20042;-72
2023/03/14 09:16:15;;;;;;;8.98;2.15;;;15.00;96.70;;;;;;5091590;28;20657;-72
2023/03/14 09:18:43;;;;;;;14.52;2.47;;;15.00;96.70;;;;;;5101279;28;20067;-72
2023/03/14 09:21:13;;;;;;;10.93;3.63;;;15.00;96.70;;;;;;5079440;28;20109;-72
2023/03/14 09:23:40;;;;;;;10.75;2.40;;;15.00;96.70;;;;;;5083347;28;20051;-72
2023/03/14 09:26:08;;;;;;;13.93;4.05;;;14.90;96.70;;;;;;5062221;28;20544;-72
2023/03/14 09:28:37;;;;;;;10.18;2.80;;;14.90;96.70;;;;;;5103248;28;20117;-73
2023/03/14 09:31:09;;;;;;;9.88;2.83;;;14.90;96.70;;;;;;5084817;28;20052;-73
2023/03/14 09:33:37;;;;;;;9.07;2.47;;;14.90;96.70;;;;;;5064138;28;20436;-73
2023/03/14 09:36:07;;;;;;;14.40;5.05;;;15.00;96.70;;;;;;5066658;28;20869;-73
2023/03/14 09:38:36;;;;;;;9.18;3.03;;;15.00;96.70;;;;;;5047490;28;20055;-73
2023/03/14 09:41:14;;;;;;;7.57;2.67;;;15.00;96.70;;;;;;5078077;28;20492;-73
2023/03/14 09:43:44;;;;;;;7.35;2.92;;;15.00;96.70;;;;;;5085618;28;20494;-72
2023/03/14 09:46:13;;;;;;;10.40;2.30;;;15.10;96.70;;;;;;5074751;28;21328;-75
2023/03/14 09:48:43;;;;;;;10.15;2.28;;;15.10;96.70;;;;;;5095615;28;20147;-72
2023/03/14 09:51:15;;;;;;;11.82;3.03;;;15.10;96.70;;;;;;5065144;28;20060;-73
2023/03/14 09:53:46;;;;;;;15.18;3.33;;;15.10;96.70;;;;;;5064641;28;20117;-72
2023/03/14 09:56:19;;;;;;;8.43;2.85;;;15.10;96.70;;;;;;5096684;28;20046;-72
2023/03/14 09:58:52;;;;;;;10.80;2.20;;;15.20;96.70;;;;;;5090996;28;20075;-75
2023/03/14 10:01:25;;;;;;;9.52;2.25;;;15.20;96.70;;;;;;5076467;28;20057;-73
2023/03/14 10:03:56;;;;;;;11.13;2.58;;;15.30;96.70;;;;;;5064039;28;20490;-72
2023/03/14 10:06:27;;;;;;;6.85;1.48;;;15.30;96.70;;;;;;5062216;28;20040;-73
2023/03/14 10:08:56;;;;;;;10.40;2.38;;;15.40;96.70;;;;;;5057416;28;20170;-72
2023/03/14 10:11:25;;;;;;;10.43;2.83;;;15.40;96.70;;;;;;5102366;28;20047;-72
2023/03/14 10:14:12;;;;;;;11.80;2.70;;;15.40;96.70;;;;;;5087566;28;20051;-73
2023/03/14 10:16:43;;;;;;;12.15;2.53;;;15.50;96.70;;;;;;5065914;28;20048;-74
2023/03/14 10:19:13;;;;;;;12.27;3.13;;;15.60;96.70;;;;;;5080460;28;20051;-74
2023/03/14 10:21:43;;;;;;;13.20;2.60;;;15.70;96.70;;;;;;5071295;28;20056;-74
2023/03/14 10:24:20;;;;;;;9.73;2.20;;;15.70;96.70;;;;;;5082002;28;20493;-73
2023/03/14 10:26:50;;;;;;;9.77;2.60;;;15.90;96.70;;;;;;5089333;28;20054;-76
2023/03/14 10:29:17;;;;;;;13.52;2.78;;;15.90;96.70;;;;;;5075569;28;21527;-73
2023/03/14 10:31:52;;;;;;;13.40;3.05;;;16.00;96.70;;;;;;5075589;28;20044;-73
2023/03/14 10:34:25;;;;;;;13.82;4.18;;;16.00;96.70;;;;;;5098540;28;20051;-74
2023/03/14 10:36:54;;;;;;;13.95;3.10;;;16.00;96.70;;;;;;5105036;28;20086;-74
2023/03/14 10:39:43;;;;;;;10.50;2.95;;;16.00;96.70;;;;;;5068483;28;20118;-73
2023/03/14 10:42:20;;;;;;;6.45;1.70;;;16.00;96.70;;;;;;5067488;28;20074;-75
2023/03/14 10:44:54;;;;;;;6.95;1.92;;;15.50;96.70;;;;;;5067278;28;20043;-75
2023/03/14 10:47:28;;;;;;;8.18;1.23;;;14.80;96.70;;;;;;5084726;28;20035;-75
2023/03/14 10:49:57;;;;;;;7.30;1.35;;;14.20;96.70;;;;;;5052861;28;20608;-74
2023/03/14 10:52:26;;;;;;;7.20;1.55;;;13.80;96.70;;;;;;5082022;28;20040;-74
2023/03/14 10:55:15;;;;;;;10.77;2.00;;;13.70;96.70;;;;;;5094617;28;20436;-73
2023/03/14 10:57:43;;;;;;;8.60;1.85;;;13.30;96.70;;;;;;5067242;28;20051;-73
2023/03/14 11:00:19;;;;;;;7.95;1.50;;;13.10;96.70;;;;;;5071611;28;20043;-73
2023/03/14 11:03:08;;;;;;;10.73;2.03;;;13.00;96.70;;;;;;5069902;28;20134;-74
2023/03/14 11:05:42;;;;;;;9.85;1.60;;;13.10;96.70;;;;;;5058745;28;20056;-74
2023/03/14 11:08:15;;;;;;;11.20;2.53;;;13.20;96.70;;;;;;5065538;28;20044;-73
2023/03/14 11:10:47;;;;;;;9.65;2.10;;;13.30;96.70;;;;;;5067572;28;20078;-73
2023/03/14 11:13:22;;;;;;;11.05;4.30;;;13.50;96.70;;;;;;5085054;28;20055;-74
2023/03/14 11:16:02;;;;;;;10.40;3.70;;;13.90;96.70;;;;;;5088399;28;20043;-74
2023/03/14 11:18:57;;;;;;;8.35;2.72;;;14.20;96.70;;;;;;5068620;28;20391;-75
2023/03/14 11:21:32;;;;;;;9.38;1.77;;;14.50;96.70;;;;;;5077245;28;20135;-74
2023/03/14 11:24:33;;;;;;;8.70;1.92;;;15.00;96.70;;;;;;5067626;28;20052;-74
2023/03/14 11:27:10;;;;;;;11.73;1.80;;;15.50;96.70;;;;;;5082676;28;20073;-74
2023/03/14 11:29:40;;;;;;;6.15;1.42;;;15.80;96.70;;;;;;5085725;28;20047;-74
2023/03/14 11:32:13;;;;;;;7.35;2.15;;;16.00;96.70;;;;;;5066511;28;20048;-75
2023/03/14 11:34:50;;;;;;;6.53;1.35;;;15.80;96.70;;;;;;5085680;28;20546;-75
2023/03/14 11:37:23;;;;;;;;;;;15.90;96.70;;;;;;5080011;28;20071;-75
2023/03/14 11:39:58;;;;;;;8.65;1.27;;;16.10;96.70;;;;;;5077178;28;19923;-75
2023/03/14 11:42:28;;;;;;;6.15;1.35;;;16.40;96.70;;;;;;5104633;28;20043;-75
2023/03/14 11:44:58;;;;;;;10.50;1.65;;;16.70;96.70;;;;;;5068757;28;20047;-76
2023/03/14 11:47:33;;;;;;;10.45;1.20;;;16.80;96.70;;;;;;5065831;28;20052;-75
2023/03/14 11:50:06;;;;;;;10.18;1.48;;;17.00;96.70;;;;;;5066686;28;20101;-75
2023/03/14 11:52:39;;;;;;;5.68;1.17;;;17.00;96.70;;;;;;5100877;28;20088;-75
2023/03/14 11:55:17;;;;;;;5.22;1.08;;;17.10;96.70;;;;;;5058384;28;20052;-74
2023/03/14 11:57:50;;;;;;;8.65;1.50;;;17.30;96.70;;;;;;5085358;28;20073;-77
2023/03/14 12:00:21;;;;;;;8.90;1.70;;;17.50;96.70;;;;;;5089279;28;20044;-75
2023/03/14 12:02:57;;;;;;;7.57;1.67;;;17.50;96.70;;;;;;5065829;28;20052;-75
2023/03/14 12:05:47;;;;;;;12.05;1.50;;;17.40;96.70;;;;;;5057910;28;20048;-74
2023/03/14 12:08:41;;;;;;;9.43;1.80;;;17.10;96.70;;;;;;5064552;28;20119;-75
2023/03/14 12:11:18;;;;;;;8.18;1.42;;;16.70;96.70;;;;;;5060958;28;20046;-75
2023/03/14 12:13:50;;;;;;;7.75;1.80;;;16.60;96.70;;;;;;5101963;28;20104;-74
2023/03/14 12:16:36;;;;;;;6.90;1.80;;;16.50;96.70;;;;;;5075999;28;20049;-74
2023/03/14 12:19:30;;;;;;;8.98;1.70;;;16.30;96.70;;;;;;5068642;28;20048;-74
2023/03/14 12:22:05;;;;;;;8.90;1.75;;;16.40;96.70;;;;;;5097944;28;20134;-75
2023/03/14 12:24:35;;;;;;;10.95;2.42;;;16.30;96.70;;;;;;5075919;28;20480;-74
2023/03/14 12:27:08;;;;;;;6.65;1.65;;;16.20;96.70;;;;;;5093091;28;20044;-74
2023/03/14 12:30:20;;;;;;;6.78;1.52;;;16.10;96.70;;;;;;5069207;28;20039;-74
2023/03/14 12:33:19;;;;;;;11.10;2.25;;;16.00;96.70;;;;;;5013174;28;20144;-75
2023/03/14 12:35:49;;;;;;;12.18;2.38;;;15.90;96.70;;;;;;5004960;28;20049;-75
2023/03/14 12:38:28;;;;;;;8.63;2.03;;;16.00;96.70;;;;;;5031709;28;20386;-75
2023/03/14 12:41:01;;;;;;;10.82;2.25;;;16.10;96.70;;;;;;5039589;28;20188;-74
2023/03/14 12:43:32;;;;;;;8.77;1.60;;;16.00;96.70;;;;;;5015107;28;20056;-74
2023/03/14 12:46:26;;;;;;;9.32;1.90;;;16.00;96.70;;;;;;5018936;28;20422;-76
2023/03/14 12:48:56;;;;;;;14.73;2.65;;;16.00;96.70;;;;;;5010740;28;20099;-75
2023/03/14 12:51:34;;;;;;;11.70;2.25;;;16.20;96.70;;;;;;5020613;28;20514;-75
2023/03/14 12:54:35;;;;;;;10.30;2.03;;;16.30;96.70;;;;;;5021318;28;20087;-74
2023/03/14 12:57:28;;;;;;;8.50;2.03;;;16.30;96.70;;;;;;5005010;28;20151;-75
2023/03/14 12:59:57;;;;;;;11.93;2.60;;;16.50;96.70;;;;;;5018318;28;20484;-74
2023/03/14 13:02:28;;;;;;;12.27;2.47;;;16.40;96.70;;;;;;4998345;28;20037;-74
2023/03/14 13:05:05;;;;;;;11.88;1.98;;;16.20;96.70;;;;;;5093555;28;20044;-74
2023/03/14 13:07:35;;;;;;;;;;;16.10;96.70;;;;;;5066826;28;20075;-75
2023/03/14 13:10:17;;;;;;;11.50;2.25;;;16.20;96.70;;;;;;5068111;28;19932;-74
2023/03/14 13:12:54;;;;;;;10.50;2.10;;;16.20;96.70;;;;;;5054612;28;20048;-74
2023/03/14 13:15:29;;;;;;;12.52;2.40;;;16.20;96.70;;;;;;5090543;28;20043;-74
2023/03/14 13:18:13;;;;;;;11.20;2.67;;;16.10;96.70;;;;;;5101623;28;20439;-74